sensor_id;sensor_type;location;lat;lon;timestamp;P1;durP1;ratioP1;P2;durP2;ratioP2
21392;SDS011;10857;52.228;21.026;2022-10-17T05:14:29;36.33;;;24.90;;
21392;SDS011;10857;52.228;21.026;2022-10-17T05:16:56;37.92;;;24.50;;
21392;SDS011;10857;52.228;21.026;2022-10-17T05:19:25;42.97;;;26.30;;
21392;SDS011;10857;52.228;21.026;2022-10-17T05:21:52;35.83;;;23.50;;
21392;SDS011;10857;52.228;21.026;2022-10-17T05:24:20;34.45;;;23.55;;
21392;SDS011;10857;52.228;21.026;2022-10-17T05:26:48;37.42;;;24.55;;
21392;SDS011;10857;52.228;21.026;2022-10-17T05:29:17;36.35;;;23.88;;
21392;SDS011;10857;52.228;21.026;2022-10-17T05:31:50;37.28;;;23.80;;
21392;SDS011;10857;52.228;21.026;2022-10-17T05:34:18;34.35;;;24.67;;
21392;SDS011;10857;52.228;21.026;2022-10-17T05:36:45;38.28;;;24.25;;
21392;SDS011;10857;52.228;21.026;2022-10-17T05:39:15;40.13;;;24.63;;
21392;SDS011;10857;52.228;21.026;2022-10-17T05:41:46;40.28;;;24.52;;
21392;SDS011;10857;52.228;21.026;2022-10-17T05:44:13;38.03;;;24.67;;
21392;SDS011;10857;52.228;21.026;2022-10-17T05:46:46;40.28;;;24.70;;
21392;SDS011;10857;52.228;21.026;2022-10-17T05:49:15;36.30;;;24.70;;
21392;SDS011;10857;52.228;21.026;2022-10-17T05:52:02;38.55;;;25.98;;
21392;SDS011;10857;52.228;21.026;2022-10-17T05:54:35;39.50;;;25.45;;
21392;SDS011;10857;52.228;21.026;2022-10-17T05:57:02;46.05;;;28.30;;
21392;SDS011;10857;52.228;21.026;2022-10-17T05:59:31;43.03;;;27.17;;
21392;SDS011;10857;52.228;21.026;2022-10-17T06:02:11;36.63;;;25.73;;
21392;SDS011;10857;52.228;21.026;2022-10-17T06:04:39;42.60;;;27.15;;
21392;SDS011;10857;52.228;21.026;2022-10-17T06:07:12;41.40;;;26.92;;
21392;SDS011;10857;52.228;21.026;2022-10-17T06:09:41;44.38;;;26.23;;
21392;SDS011;10857;52.228;21.026;2022-10-17T06:12:08;40.88;;;26.77;;
21392;SDS011;10857;52.228;21.026;2022-10-17T06:14:35;49.35;;;27.38;;
21392;SDS011;10857;52.228;21.026;2022-10-17T06:17:04;50.03;;;28.27;;
21392;SDS011;10857;52.228;21.026;2022-10-17T06:19:31;43.17;;;26.48;;
21392;SDS011;10857;52.228;21.026;2022-10-17T06:21:58;43.80;;;26.67;;
21392;SDS011;10857;52.228;21.026;2022-10-17T06:24:26;42.42;;;27.50;;
21392;SDS011;10857;52.228;21.026;2022-10-17T06:26:54;50.65;;;27.58;;
21392;SDS011;10857;52.228;21.026;2022-10-17T06:29:22;47.25;;;27.17;;
21392;SDS011;10857;52.228;21.026;2022-10-17T06:31:50;41.80;;;27.40;;
21392;SDS011;10857;52.228;21.026;2022-10-17T06:34:18;44.75;;;27.50;;
21392;SDS011;10857;52.228;21.026;2022-10-17T06:36:46;45.33;;;27.10;;
21392;SDS011;10857;52.228;21.026;2022-10-17T06:39:16;44.50;;;27.48;;
21392;SDS011;10857;52.228;21.026;2022-10-17T06:41:51;43.72;;;26.75;;
21392;SDS011;10857;52.228;21.026;2022-10-17T06:44:19;45.10;;;27.58;;
21392;SDS011;10857;52.228;21.026;2022-10-17T06:47:08;39.78;;;26.92;;
21392;SDS011;10857;52.228;21.026;2022-10-17T06:49:41;43.35;;;27.25;;
21392;SDS011;10857;52.228;21.026;2022-10-17T06:52:23;44.00;;;27.10;;
21392;SDS011;10857;52.228;21.026;2022-10-17T06:55:15;43.85;;;26.88;;
21392;SDS011;10857;52.228;21.026;2022-10-17T06:58:08;44.78;;;27.60;;
21392;SDS011;10857;52.228;21.026;2022-10-17T07:00:41;46.65;;;27.67;;
21392;SDS011;10857;52.228;21.026;2022-10-17T07:03:10;41.60;;;26.50;;
21392;SDS011;10857;52.228;21.026;2022-10-17T07:05:37;45.22;;;27.30;;
21392;SDS011;10857;52.228;21.026;2022-10-17T07:08:04;45.65;;;27.17;;
21392;SDS011;10857;52.228;21.026;2022-10-17T07:10:35;46.10;;;29.17;;
21392;SDS011;10857;52.228;21.026;2022-10-17T07:13:05;42.15;;;28.98;;
21392;SDS011;10857;52.228;21.026;2022-10-17T07:15:35;41.50;;;27.67;;
21392;SDS011;10857;52.228;21.026;2022-10-17T07:18:02;43.25;;;27.88;;
21392;SDS011;10857;52.228;21.026;2022-10-17T07:20:30;39.15;;;26.75;;
21392;SDS011;10857;52.228;21.026;2022-10-17T07:22:57;40.97;;;28.08;;
21392;SDS011;10857;52.228;21.026;2022-10-17T07:25:24;41.40;;;28.40;;
21392;SDS011;10857;52.228;21.026;2022-10-17T07:27:56;42.55;;;26.15;;
21392;SDS011;10857;52.228;21.026;2022-10-17T07:30:23;38.70;;;27.17;;
21392;SDS011;10857;52.228;21.026;2022-10-17T07:32:55;44.17;;;27.98;;
21392;SDS011;10857;52.228;21.026;2022-10-17T07:35:23;51.85;;;27.48;;
21392;SDS011;10857;52.228;21.026;2022-10-17T07:37:50;40.13;;;26.17;;
21392;SDS011;10857;52.228;21.026;2022-10-17T07:40:19;41.92;;;27.33;;
21392;SDS011;10857;52.228;21.026;2022-10-17T07:42:46;42.88;;;27.23;;
21392;SDS011;10857;52.228;21.026;2022-10-17T07:45:13;43.33;;;28.00;;
21392;SDS011;10857;52.228;21.026;2022-10-17T07:47:41;39.53;;;26.83;;
21392;SDS011;10857;52.228;21.026;2022-10-17T07:50:11;41.20;;;28.27;;
21392;SDS011;10857;52.228;21.026;2022-10-17T07:52:38;41.22;;;27.48;;
21392;SDS011;10857;52.228;21.026;2022-10-17T07:55:05;41.92;;;27.25;;
21392;SDS011;10857;52.228;21.026;2022-10-17T07:57:33;38.13;;;26.73;;
21392;SDS011;10857;52.228;21.026;2022-10-17T08:00:00;42.45;;;27.42;;
21392;SDS011;10857;52.228;21.026;2022-10-17T08:02:26;41.03;;;26.27;;
21392;SDS011;10857;52.228;21.026;2022-10-17T08:04:54;42.63;;;26.65;;
21392;SDS011;10857;52.228;21.026;2022-10-17T08:07:21;37.80;;;26.80;;
21392;SDS011;10857;52.228;21.026;2022-10-17T08:09:54;41.17;;;27.58;;
21392;SDS011;10857;52.228;21.026;2022-10-17T08:12:21;36.85;;;26.38;;
21392;SDS011;10857;52.228;21.026;2022-10-17T08:14:49;39.85;;;27.02;;
21392;SDS011;10857;52.228;21.026;2022-10-17T08:17:16;39.35;;;27.25;;
21392;SDS011;10857;52.228;21.026;2022-10-17T08:19:43;43.63;;;27.98;;
21392;SDS011;10857;52.228;21.026;2022-10-17T08:22:10;43.00;;;29.73;;
21392;SDS011;10857;52.228;21.026;2022-10-17T08:24:37;44.67;;;31.90;;
21392;SDS011;10857;52.228;21.026;2022-10-17T08:27:03;45.20;;;29.52;;
21392;SDS011;10857;52.228;21.026;2022-10-17T08:29:37;42.70;;;27.13;;
21392;SDS011;10857;52.228;21.026;2022-10-17T08:32:07;40.22;;;26.83;;
21392;SDS011;10857;52.228;21.026;2022-10-17T08:34:35;37.28;;;26.88;;
21392;SDS011;10857;52.228;21.026;2022-10-17T08:37:02;38.38;;;27.67;;
21392;SDS011;10857;52.228;21.026;2022-10-17T08:39:29;41.72;;;27.75;;
21392;SDS011;10857;52.228;21.026;2022-10-17T08:47:25;39.42;;;26.77;;
21392;SDS011;10857;52.228;21.026;2022-10-17T08:50:02;39.45;;;26.58;;
21392;SDS011;10857;52.228;21.026;2022-10-17T08:55:32;42.03;;;26.35;;
21392;SDS011;10857;52.228;21.026;2022-10-17T08:58:12;36.42;;;26.30;;
21392;SDS011;10857;52.228;21.026;2022-10-17T09:00:42;39.03;;;26.05;;
21392;SDS011;10857;52.228;21.026;2022-10-17T09:03:22;41.33;;;25.42;;
21392;SDS011;10857;52.228;21.026;2022-10-17T09:06:23;38.63;;;26.55;;
21392;SDS011;10857;52.228;21.026;2022-10-17T09:19:59;38.45;;;24.60;;
21392;SDS011;10857;52.228;21.026;2022-10-17T09:22:57;36.60;;;24.75;;
21392;SDS011;10857;52.228;21.026;2022-10-17T09:25:53;36.35;;;24.40;;
21392;SDS011;10857;52.228;21.026;2022-10-17T09:28:29;35.17;;;23.42;;
21392;SDS011;10857;52.228;21.026;2022-10-17T09:31:13;39.17;;;24.13;;
21392;SDS011;10857;52.228;21.026;2022-10-17T09:33:45;29.98;;;21.83;;
21392;SDS011;10857;52.228;21.026;2022-10-17T09:36:31;32.25;;;23.40;;
21392;SDS011;10857;52.228;21.026;2022-10-17T09:39:21;36.10;;;24.05;;
21392;SDS011;10857;52.228;21.026;2022-10-17T09:41:50;35.40;;;23.05;;
21392;SDS011;10857;52.228;21.026;2022-10-17T09:49:29;40.35;;;22.33;;
21392;SDS011;10857;52.228;21.026;2022-10-17T09:52:00;30.63;;;22.58;;
21392;SDS011;10857;52.228;21.026;2022-10-17T09:54:33;31.73;;;22.48;;
21392;SDS011;10857;52.228;21.026;2022-10-17T09:57:15;33.42;;;21.95;;
21392;SDS011;10857;52.228;21.026;2022-10-17T09:59:54;33.33;;;21.02;;
21392;SDS011;10857;52.228;21.026;2022-10-17T10:02:26;41.63;;;23.55;;
21392;SDS011;10857;52.228;21.026;2022-10-17T10:05:08;33.58;;;21.95;;
21392;SDS011;10857;52.228;21.026;2022-10-17T10:07:41;33.70;;;20.65;;
21392;SDS011;10857;52.228;21.026;2022-10-17T10:10:24;31.63;;;20.98;;
21392;SDS011;10857;52.228;21.026;2022-10-17T10:15:44;31.17;;;18.92;;
21392;SDS011;10857;52.228;21.026;2022-10-17T10:18:30;28.75;;;19.13;;
21392;SDS011;10857;52.228;21.026;2022-10-17T10:21:09;29.98;;;19.83;;
21392;SDS011;10857;52.228;21.026;2022-10-17T10:23:41;31.30;;;19.00;;
21392;SDS011;10857;52.228;21.026;2022-10-17T10:26:20;29.65;;;18.35;;
21392;SDS011;10857;52.228;21.026;2022-10-17T10:38:01;24.58;;;17.48;;
21392;SDS011;10857;52.228;21.026;2022-10-17T10:40:51;25.80;;;17.27;;
21392;SDS011;10857;52.228;21.026;2022-10-17T10:43:40;21.63;;;17.02;;
21392;SDS011;10857;52.228;21.026;2022-10-17T10:46:30;25.13;;;17.60;;
21392;SDS011;10857;52.228;21.026;2022-10-17T10:48:58;25.02;;;18.30;;
21392;SDS011;10857;52.228;21.026;2022-10-17T10:54:05;23.55;;;17.52;;
21392;SDS011;10857;52.228;21.026;2022-10-17T10:56:40;26.55;;;17.63;;
21392;SDS011;10857;52.228;21.026;2022-10-17T11:01:55;26.38;;;16.55;;
21392;SDS011;10857;52.228;21.026;2022-10-17T11:09:57;21.40;;;16.30;;
21392;SDS011;10857;52.228;21.026;2022-10-17T11:12:34;28.52;;;16.85;;
21392;SDS011;10857;52.228;21.026;2022-10-17T11:15:19;24.63;;;16.33;;
21392;SDS011;10857;52.228;21.026;2022-10-17T11:17:55;25.80;;;17.00;;
21392;SDS011;10857;52.228;21.026;2022-10-17T11:26:01;24.58;;;17.25;;
21392;SDS011;10857;52.228;21.026;2022-10-17T11:28:31;25.83;;;17.92;;
21392;SDS011;10857;52.228;21.026;2022-10-17T11:30:59;21.48;;;16.63;;
21392;SDS011;10857;52.228;21.026;2022-10-17T11:36:18;22.35;;;17.27;;
21392;SDS011;10857;52.228;21.026;2022-10-17T11:41:42;25.65;;;17.63;;
21392;SDS011;10857;52.228;21.026;2022-10-17T11:44:25;23.88;;;16.73;;
21392;SDS011;10857;52.228;21.026;2022-10-17T11:46:59;27.83;;;17.13;;
21392;SDS011;10857;52.228;21.026;2022-10-17T11:49:45;23.50;;;17.13;;
21392;SDS011;10857;52.228;21.026;2022-10-17T11:52:33;24.65;;;17.45;;
21392;SDS011;10857;52.228;21.026;2022-10-17T11:55:23;25.95;;;16.63;;
21392;SDS011;10857;52.228;21.026;2022-10-17T12:00:29;22.38;;;16.83;;
21392;SDS011;10857;52.228;21.026;2022-10-17T12:03:16;26.23;;;16.67;;
21392;SDS011;10857;52.228;21.026;2022-10-17T12:08:52;27.15;;;18.05;;
21392;SDS011;10857;52.228;21.026;2022-10-17T12:11:26;24.90;;;16.60;;
21392;SDS011;10857;52.228;21.026;2022-10-17T12:17:24;27.42;;;18.00;;
21392;SDS011;10857;52.228;21.026;2022-10-17T12:22:51;28.00;;;17.52;;
21392;SDS011;10857;52.228;21.026;2022-10-17T12:25:25;26.98;;;17.45;;
21392;SDS011;10857;52.228;21.026;2022-10-17T12:28:10;26.30;;;17.92;;
21392;SDS011;10857;52.228;21.026;2022-10-17T12:38:51;20.98;;;16.73;;
21392;SDS011;10857;52.228;21.026;2022-10-17T12:49:19;23.55;;;16.67;;
21392;SDS011;10857;52.228;21.026;2022-10-17T12:57:40;22.70;;;17.05;;
21392;SDS011;10857;52.228;21.026;2022-10-17T13:00:28;26.88;;;18.08;;
21392;SDS011;10857;52.228;21.026;2022-10-17T13:03:01;28.67;;;18.73;;
21392;SDS011;10857;52.228;21.026;2022-10-17T13:05:38;25.40;;;17.88;;
21392;SDS011;10857;52.228;21.026;2022-10-17T13:08:14;28.02;;;18.40;;
21392;SDS011;10857;52.228;21.026;2022-10-17T13:10:55;25.05;;;18.50;;
21392;SDS011;10857;52.228;21.026;2022-10-17T13:19:12;207.40;;;47.58;;
21392;SDS011;10857;52.228;21.026;2022-10-17T13:24:31;102.18;;;39.13;;
21392;SDS011;10857;52.228;21.026;2022-10-17T13:27:00;27.55;;;18.95;;
21392;SDS011;10857;52.228;21.026;2022-10-17T13:29:28;30.75;;;19.17;;
21392;SDS011;10857;52.228;21.026;2022-10-17T13:31:58;27.42;;;18.80;;
21392;SDS011;10857;52.228;21.026;2022-10-17T13:34:27;28.38;;;17.30;;
21392;SDS011;10857;52.228;21.026;2022-10-17T13:36:55;29.33;;;17.70;;
21392;SDS011;10857;52.228;21.026;2022-10-17T13:39:24;29.13;;;17.95;;
21392;SDS011;10857;52.228;21.026;2022-10-17T13:45:14;26.95;;;17.27;;
21392;SDS011;10857;52.228;21.026;2022-10-17T13:47:42;27.98;;;16.73;;
21392;SDS011;10857;52.228;21.026;2022-10-17T13:50:18;27.25;;;16.73;;
21392;SDS011;10857;52.228;21.026;2022-10-17T13:58:52;26.98;;;17.27;;
21392;SDS011;10857;52.228;21.026;2022-10-17T14:01:26;30.48;;;17.35;;
21392;SDS011;10857;52.228;21.026;2022-10-17T14:03:54;27.17;;;16.52;;
21392;SDS011;10857;52.228;21.026;2022-10-17T14:06:36;25.92;;;17.02;;
21392;SDS011;10857;52.228;21.026;2022-10-17T14:09:20;23.30;;;16.83;;
21392;SDS011;10857;52.228;21.026;2022-10-17T14:12:03;27.00;;;17.90;;
21392;SDS011;10857;52.228;21.026;2022-10-17T14:14:36;25.83;;;17.33;;
21392;SDS011;10857;52.228;21.026;2022-10-17T14:17:25;26.27;;;17.27;;
21392;SDS011;10857;52.228;21.026;2022-10-17T14:19:55;27.88;;;16.83;;
21392;SDS011;10857;52.228;21.026;2022-10-17T14:22:48;23.27;;;16.65;;
21392;SDS011;10857;52.228;21.026;2022-10-17T14:25:37;26.23;;;16.98;;
21392;SDS011;10857;52.228;21.026;2022-10-17T14:30:39;26.50;;;18.85;;
21392;SDS011;10857;52.228;21.026;2022-10-17T14:33:28;30.05;;;18.20;;
21392;SDS011;10857;52.228;21.026;2022-10-17T14:35:56;26.63;;;18.17;;
21392;SDS011;10857;52.228;21.026;2022-10-17T14:38:25;23.80;;;17.00;;
21392;SDS011;10857;52.228;21.026;2022-10-17T14:41:17;30.73;;;17.80;;
21392;SDS011;10857;52.228;21.026;2022-10-17T14:44:06;26.80;;;16.95;;
21392;SDS011;10857;52.228;21.026;2022-10-17T14:46:43;25.30;;;16.52;;
21392;SDS011;10857;52.228;21.026;2022-10-17T14:49:16;25.17;;;17.70;;
21392;SDS011;10857;52.228;21.026;2022-10-17T14:54:42;29.27;;;17.50;;
21392;SDS011;10857;52.228;21.026;2022-10-17T14:57:15;30.08;;;17.60;;
21392;SDS011;10857;52.228;21.026;2022-10-17T14:59:42;20.40;;;16.05;;
21392;SDS011;10857;52.228;21.026;2022-10-17T15:02:27;27.58;;;17.02;;
21392;SDS011;10857;52.228;21.026;2022-10-17T15:04:56;27.67;;;17.60;;
21392;SDS011;10857;52.228;21.026;2022-10-17T15:07:23;23.58;;;16.90;;
21392;SDS011;10857;52.228;21.026;2022-10-17T15:09:50;30.35;;;18.20;;
21392;SDS011;10857;52.228;21.026;2022-10-17T15:12:20;22.58;;;16.83;;
21392;SDS011;10857;52.228;21.026;2022-10-17T15:14:48;26.95;;;17.25;;
21392;SDS011;10857;52.228;21.026;2022-10-17T15:17:25;30.30;;;18.10;;
21392;SDS011;10857;52.228;21.026;2022-10-17T15:19:54;24.83;;;17.20;;
21392;SDS011;10857;52.228;21.026;2022-10-17T15:22:22;24.13;;;17.88;;
21392;SDS011;10857;52.228;21.026;2022-10-17T15:24:49;23.67;;;16.70;;
21392;SDS011;10857;52.228;21.026;2022-10-17T15:27:18;22.27;;;16.63;;
21392;SDS011;10857;52.228;21.026;2022-10-17T15:30:10;22.80;;;16.77;;
21392;SDS011;10857;52.228;21.026;2022-10-17T15:32:51;24.15;;;16.73;;
21392;SDS011;10857;52.228;21.026;2022-10-17T15:35:19;26.65;;;16.83;;
21392;SDS011;10857;52.228;21.026;2022-10-17T15:37:47;25.00;;;17.58;;
21392;SDS011;10857;52.228;21.026;2022-10-17T15:40:16;27.13;;;17.30;;
21392;SDS011;10857;52.228;21.026;2022-10-17T15:42:46;23.52;;;17.25;;
21392;SDS011;10857;52.228;21.026;2022-10-17T15:45:14;28.77;;;18.10;;
21392;SDS011;10857;52.228;21.026;2022-10-17T15:47:42;25.73;;;17.30;;
21392;SDS011;10857;52.228;21.026;2022-10-17T15:50:16;26.83;;;16.88;;
21392;SDS011;10857;52.228;21.026;2022-10-17T15:52:43;27.95;;;17.35;;
21392;SDS011;10857;52.228;21.026;2022-10-17T15:55:12;26.52;;;17.40;;
21392;SDS011;10857;52.228;21.026;2022-10-17T15:57:40;24.90;;;17.77;;
21392;SDS011;10857;52.228;21.026;2022-10-17T16:00:13;23.98;;;17.58;;
21392;SDS011;10857;52.228;21.026;2022-10-17T16:02:48;25.48;;;17.48;;
21392;SDS011;10857;52.228;21.026;2022-10-17T16:05:17;28.65;;;17.73;;
21392;SDS011;10857;52.228;21.026;2022-10-17T16:07:48;25.15;;;17.88;;
21392;SDS011;10857;52.228;21.026;2022-10-17T16:10:15;27.63;;;18.13;;
21392;SDS011;10857;52.228;21.026;2022-10-17T16:12:43;29.40;;;18.33;;
21392;SDS011;10857;52.228;21.026;2022-10-17T16:15:12;27.35;;;18.60;;
21392;SDS011;10857;52.228;21.026;2022-10-17T16:17:40;29.27;;;19.30;;
21392;SDS011;10857;52.228;21.026;2022-10-17T16:20:09;29.80;;;18.15;;
21392;SDS011;10857;52.228;21.026;2022-10-17T16:22:37;30.95;;;19.42;;
21392;SDS011;10857;52.228;21.026;2022-10-17T16:25:19;30.83;;;19.17;;
21392;SDS011;10857;52.228;21.026;2022-10-17T16:27:54;30.40;;;19.70;;
21392;SDS011;10857;52.228;21.026;2022-10-17T16:30:25;25.40;;;18.27;;
21392;SDS011;10857;52.228;21.026;2022-10-17T16:32:54;33.05;;;20.17;;
21392;SDS011;10857;52.228;21.026;2022-10-17T16:35:26;26.75;;;19.45;;
21392;SDS011;10857;52.228;21.026;2022-10-17T16:38:01;33.42;;;19.23;;
21392;SDS011;10857;52.228;21.026;2022-10-17T16:40:29;30.38;;;20.23;;
21392;SDS011;10857;52.228;21.026;2022-10-17T16:42:56;28.88;;;18.73;;
21392;SDS011;10857;52.228;21.026;2022-10-17T16:45:23;28.05;;;19.75;;
21392;SDS011;10857;52.228;21.026;2022-10-17T16:47:49;26.10;;;18.83;;
21392;SDS011;10857;52.228;21.026;2022-10-17T16:50:18;30.80;;;19.85;;
21392;SDS011;10857;52.228;21.026;2022-10-17T16:52:45;26.75;;;19.67;;
21392;SDS011;10857;52.228;21.026;2022-10-17T16:55:12;25.95;;;19.10;;
21392;SDS011;10857;52.228;21.026;2022-10-17T16:57:41;28.38;;;19.42;;
21392;SDS011;10857;52.228;21.026;2022-10-17T17:00:13;28.23;;;20.25;;
21392;SDS011;10857;52.228;21.026;2022-10-17T17:02:41;29.58;;;21.88;;
21392;SDS011;10857;52.228;21.026;2022-10-17T17:05:08;31.15;;;20.38;;
21392;SDS011;10857;52.228;21.026;2022-10-17T17:07:35;33.70;;;19.27;;
21392;SDS011;10857;52.228;21.026;2022-10-17T17:10:02;33.72;;;19.27;;
21392;SDS011;10857;52.228;21.026;2022-10-17T17:12:30;29.45;;;18.92;;
21392;SDS011;10857;52.228;21.026;2022-10-17T17:14:59;36.17;;;19.85;;
21392;SDS011;10857;52.228;21.026;2022-10-17T17:17:26;29.00;;;19.27;;
21392;SDS011;10857;52.228;21.026;2022-10-17T17:20:13;30.33;;;19.25;;
21392;SDS011;10857;52.228;21.026;2022-10-17T17:22:40;27.50;;;19.25;;
21392;SDS011;10857;52.228;21.026;2022-10-17T17:25:06;26.52;;;18.40;;
21392;SDS011;10857;52.228;21.026;2022-10-17T17:27:34;28.75;;;19.42;;
21392;SDS011;10857;52.228;21.026;2022-10-17T17:30:00;28.85;;;18.95;;
21392;SDS011;10857;52.228;21.026;2022-10-17T17:32:27;30.58;;;18.63;;
21392;SDS011;10857;52.228;21.026;2022-10-17T17:34:54;28.40;;;19.02;;
21392;SDS011;10857;52.228;21.026;2022-10-17T17:37:21;29.35;;;18.55;;
21392;SDS011;10857;52.228;21.026;2022-10-17T17:39:48;25.17;;;18.50;;
21392;SDS011;10857;52.228;21.026;2022-10-17T17:42:15;24.73;;;18.05;;
21392;SDS011;10857;52.228;21.026;2022-10-17T17:44:42;24.65;;;18.55;;
21392;SDS011;10857;52.228;21.026;2022-10-17T17:47:09;26.58;;;18.70;;
21392;SDS011;10857;52.228;21.026;2022-10-17T17:49:36;30.45;;;19.63;;
21392;SDS011;10857;52.228;21.026;2022-10-17T17:52:03;40.40;;;22.50;;
21392;SDS011;10857;52.228;21.026;2022-10-17T17:54:30;35.25;;;20.77;;
21392;SDS011;10857;52.228;21.026;2022-10-17T17:56:59;30.23;;;19.88;;
21392;SDS011;10857;52.228;21.026;2022-10-17T17:59:26;35.90;;;22.83;;
21392;SDS011;10857;52.228;21.026;2022-10-17T18:01:53;36.17;;;19.35;;
21392;SDS011;10857;52.228;21.026;2022-10-17T18:04:20;26.92;;;18.83;;
21392;SDS011;10857;52.228;21.026;2022-10-17T18:06:46;27.67;;;19.85;;
21392;SDS011;10857;52.228;21.026;2022-10-17T18:09:14;27.55;;;19.95;;
21392;SDS011;10857;52.228;21.026;2022-10-17T18:11:41;28.70;;;20.05;;
21392;SDS011;10857;52.228;21.026;2022-10-17T18:14:09;30.95;;;19.90;;
21392;SDS011;10857;52.228;21.026;2022-10-17T18:16:39;29.50;;;19.83;;
21392;SDS011;10857;52.228;21.026;2022-10-17T18:19:06;28.48;;;20.52;;
21392;SDS011;10857;52.228;21.026;2022-10-17T18:21:34;29.48;;;20.33;;
21392;SDS011;10857;52.228;21.026;2022-10-17T18:24:02;29.85;;;20.00;;
21392;SDS011;10857;52.228;21.026;2022-10-17T18:26:30;34.50;;;20.85;;
21392;SDS011;10857;52.228;21.026;2022-10-17T18:28:57;30.40;;;20.67;;
21392;SDS011;10857;52.228;21.026;2022-10-17T18:31:24;30.20;;;20.60;;
21392;SDS011;10857;52.228;21.026;2022-10-17T18:33:55;34.20;;;21.35;;
21392;SDS011;10857;52.228;21.026;2022-10-17T18:36:23;30.15;;;21.10;;
21392;SDS011;10857;52.228;21.026;2022-10-17T18:38:51;28.52;;;22.38;;
21392;SDS011;10857;52.228;21.026;2022-10-17T18:41:20;32.08;;;22.13;;
21392;SDS011;10857;52.228;21.026;2022-10-17T18:43:50;35.25;;;21.20;;
21392;SDS011;10857;52.228;21.026;2022-10-17T18:46:20;35.38;;;21.30;;
21392;SDS011;10857;52.228;21.026;2022-10-17T18:48:48;32.83;;;22.08;;
21392;SDS011;10857;52.228;21.026;2022-10-17T18:51:16;33.05;;;22.05;;
21392;SDS011;10857;52.228;21.026;2022-10-17T18:53:46;30.73;;;21.25;;
21392;SDS011;10857;52.228;21.026;2022-10-17T18:56:15;32.97;;;20.98;;
21392;SDS011;10857;52.228;21.026;2022-10-17T18:58:43;30.83;;;21.95;;
21392;SDS011;10857;52.228;21.026;2022-10-17T19:01:14;33.00;;;21.33;;
21392;SDS011;10857;52.228;21.026;2022-10-17T19:03:44;33.05;;;20.45;;
21392;SDS011;10857;52.228;21.026;2022-10-17T19:06:15;32.22;;;22.08;;
21392;SDS011;10857;52.228;21.026;2022-10-17T19:08:43;33.72;;;21.27;;
21392;SDS011;10857;52.228;21.026;2022-10-17T19:11:12;35.03;;;21.88;;
21392;SDS011;10857;52.228;21.026;2022-10-17T19:13:44;36.17;;;21.55;;
21392;SDS011;10857;52.228;21.026;2022-10-17T19:16:20;34.70;;;22.13;;
21392;SDS011;10857;52.228;21.026;2022-10-17T19:18:53;32.30;;;20.42;;
21392;SDS011;10857;52.228;21.026;2022-10-17T19:21:21;35.33;;;22.50;;
21392;SDS011;10857;52.228;21.026;2022-10-17T19:23:50;38.13;;;21.88;;
21392;SDS011;10857;52.228;21.026;2022-10-17T19:26:22;34.70;;;21.80;;
21392;SDS011;10857;52.228;21.026;2022-10-17T19:28:50;30.30;;;21.33;;
21392;SDS011;10857;52.228;21.026;2022-10-17T19:31:23;34.22;;;21.70;;
21392;SDS011;10857;52.228;21.026;2022-10-17T19:33:52;29.15;;;21.60;;
21392;SDS011;10857;52.228;21.026;2022-10-17T19:36:20;31.13;;;20.77;;
21392;SDS011;10857;52.228;21.026;2022-10-17T19:38:53;34.25;;;21.20;;
21392;SDS011;10857;52.228;21.026;2022-10-17T19:41:20;32.72;;;22.35;;
21392;SDS011;10857;52.228;21.026;2022-10-17T19:43:48;33.03;;;20.88;;
21392;SDS011;10857;52.228;21.026;2022-10-17T19:46:16;36.88;;;21.42;;
21392;SDS011;10857;52.228;21.026;2022-10-17T19:48:45;27.80;;;20.05;;
21392;SDS011;10857;52.228;21.026;2022-10-17T19:51:13;30.77;;;21.85;;
21392;SDS011;10857;52.228;21.026;2022-10-17T19:53:42;31.25;;;20.92;;
21392;SDS011;10857;52.228;21.026;2022-10-17T19:56:10;31.92;;;21.38;;
21392;SDS011;10857;52.228;21.026;2022-10-17T19:58:37;28.42;;;20.88;;
21392;SDS011;10857;52.228;21.026;2022-10-17T20:01:13;32.03;;;21.00;;
21392;SDS011;10857;52.228;21.026;2022-10-17T20:03:44;31.23;;;21.33;;
21392;SDS011;10857;52.228;21.026;2022-10-17T20:06:11;34.28;;;21.55;;
21392;SDS011;10857;52.228;21.026;2022-10-17T20:08:38;30.95;;;21.48;;
21392;SDS011;10857;52.228;21.026;2022-10-17T20:11:07;36.70;;;21.92;;
21392;SDS011;10857;52.228;21.026;2022-10-17T20:13:36;35.38;;;22.70;;
21392;SDS011;10857;52.228;21.026;2022-10-17T20:16:04;34.78;;;22.75;;
21392;SDS011;10857;52.228;21.026;2022-10-17T20:18:32;34.75;;;23.35;;
21392;SDS011;10857;52.228;21.026;2022-10-17T20:21:07;34.50;;;23.25;;
21392;SDS011;10857;52.228;21.026;2022-10-17T20:23:37;34.78;;;23.83;;
21392;SDS011;10857;52.228;21.026;2022-10-17T20:26:05;35.55;;;24.63;;
21392;SDS011;10857;52.228;21.026;2022-10-17T20:29:00;39.58;;;25.20;;
21392;SDS011;10857;52.228;21.026;2022-10-17T20:31:28;36.90;;;24.60;;
21392;SDS011;10857;52.228;21.026;2022-10-17T20:33:56;35.97;;;24.60;;
21392;SDS011;10857;52.228;21.026;2022-10-17T20:36:24;35.55;;;24.73;;
21392;SDS011;10857;52.228;21.026;2022-10-17T20:38:52;39.80;;;25.27;;
21392;SDS011;10857;52.228;21.026;2022-10-17T20:41:21;37.40;;;25.02;;
21392;SDS011;10857;52.228;21.026;2022-10-17T20:43:49;39.05;;;26.08;;
21392;SDS011;10857;52.228;21.026;2022-10-17T20:46:20;39.88;;;25.73;;
21392;SDS011;10857;52.228;21.026;2022-10-17T20:49:02;39.47;;;25.67;;
21392;SDS011;10857;52.228;21.026;2022-10-17T20:51:30;40.75;;;26.38;;
21392;SDS011;10857;52.228;21.026;2022-10-17T20:53:58;40.08;;;26.35;;
21392;SDS011;10857;52.228;21.026;2022-10-17T20:56:26;40.88;;;26.42;;
21392;SDS011;10857;52.228;21.026;2022-10-17T20:58:56;40.78;;;27.35;;
21392;SDS011;10857;52.228;21.026;2022-10-17T21:01:25;38.90;;;25.45;;
21392;SDS011;10857;52.228;21.026;2022-10-17T21:03:56;38.13;;;25.85;;
21392;SDS011;10857;52.228;21.026;2022-10-17T21:06:41;46.08;;;26.02;;
21392;SDS011;10857;52.228;21.026;2022-10-17T21:09:08;40.97;;;25.60;;
21392;SDS011;10857;52.228;21.026;2022-10-17T21:11:35;38.88;;;25.13;;
21392;SDS011;10857;52.228;21.026;2022-10-17T21:14:03;36.05;;;24.88;;
21392;SDS011;10857;52.228;21.026;2022-10-17T21:16:33;36.33;;;25.10;;
21392;SDS011;10857;52.228;21.026;2022-10-17T21:19:01;40.83;;;25.83;;
21392;SDS011;10857;52.228;21.026;2022-10-17T21:21:33;37.58;;;24.63;;
21392;SDS011;10857;52.228;21.026;2022-10-17T21:24:03;36.25;;;23.65;;
21392;SDS011;10857;52.228;21.026;2022-10-17T21:26:32;35.80;;;25.17;;
21392;SDS011;10857;52.228;21.026;2022-10-17T21:29:00;35.67;;;24.58;;
21392;SDS011;10857;52.228;21.026;2022-10-17T21:31:32;35.20;;;23.67;;
21392;SDS011;10857;52.228;21.026;2022-10-17T21:34:03;34.90;;;23.38;;
21392;SDS011;10857;52.228;21.026;2022-10-17T21:36:32;36.65;;;24.15;;
21392;SDS011;10857;52.228;21.026;2022-10-17T21:39:00;36.67;;;24.20;;
21392;SDS011;10857;52.228;21.026;2022-10-17T21:41:30;34.67;;;23.73;;
21392;SDS011;10857;52.228;21.026;2022-10-17T21:44:16;36.45;;;23.67;;